sensor_id;sensor_type;location;lat;lon;timestamp;pressure;altitude;pressure_sealevel;temperature;humidity
5238;BME280;2639;49.700;7.962;2023-12-04T00:01:13;98933.75;;;-2.79;95.56
5238;BME280;2639;49.700;7.962;2023-12-04T00:02:16;98928.84;;;-2.85;95.35
5238;BME280;2639;49.700;7.962;2023-12-04T00:03:19;98932.69;;;-2.94;95.98
5238;BME280;2639;49.700;7.962;2023-12-04T00:04:21;98926.19;;;-2.99;96.55
5238;BME280;2639;49.700;7.962;2023-12-04T00:05:25;98925.06;;;-3.01;96.51
5238;BME280;2639;49.700;7.962;2023-12-04T00:06:28;98923.25;;;-3.02;96.78
5238;BME280;2639;49.700;7.962;2023-12-04T00:07:31;98924.66;;;-3.04;96.81
5238;BME280;2639;49.700;7.962;2023-12-04T00:08:33;98922.88;;;-3.05;97.18
5238;BME280;2639;49.700;7.962;2023-12-04T00:09:36;98914.22;;;-3.07;96.76
5238;BME280;2639;49.700;7.962;2023-12-04T00:10:38;98913.84;;;-3.10;96.83
5238;BME280;2639;49.700;7.962;2023-12-04T00:11:41;98915.63;;;-3.09;97.26
5238;BME280;2639;49.700;7.962;2023-12-04T00:12:43;98913.84;;;-3.10;97.45
5238;BME280;2639;49.700;7.962;2023-12-04T00:13:46;98912.00;;;-3.11;97.10
5238;BME280;2639;49.700;7.962;2023-12-04T00:14:48;98912.00;;;-3.11;97.02
5238;BME280;2639;49.700;7.962;2023-12-04T00:15:51;98911.31;;;-3.10;96.63
5238;BME280;2639;49.700;7.962;2023-12-04T00:16:53;98907.72;;;-3.12;96.68
5238;BME280;2639;49.700;7.962;2023-12-04T00:17:57;98905.00;;;-3.14;96.77
5238;BME280;2639;49.700;7.962;2023-12-04T00:19:00;98906.59;;;-3.14;96.62
5238;BME280;2639;49.700;7.962;2023-12-04T00:20:02;98897.75;;;-3.18;96.56
5238;BME280;2639;49.700;7.962;2023-12-04T00:21:06;98899.88;;;-3.21;96.60
5238;BME280;2639;49.700;7.962;2023-12-04T00:22:07;98895.38;;;-3.24;96.81
5238;BME280;2639;49.700;7.962;2023-12-04T00:23:10;98893.88;;;-3.29;96.40
5238;BME280;2639;49.700;7.962;2023-12-04T00:24:13;98890.28;;;-3.31;97.10
5238;BME280;2639;49.700;7.962;2023-12-04T00:25:15;98884.13;;;-3.33;97.38
5238;BME280;2639;49.700;7.962;2023-12-04T00:26:18;98890.94;;;-3.32;97.57
5238;BME280;2639;49.700;7.962;2023-12-04T00:27:20;98888.25;;;-3.33;97.42
5238;BME280;2639;49.700;7.962;2023-12-04T00:28:28;98883.34;;;-3.39;97.21
5238;BME280;2639;49.700;7.962;2023-12-04T00:29:30;98881.53;;;-3.40;97.88
5238;BME280;2639;49.700;7.962;2023-12-04T00:30:33;98879.75;;;-3.41;97.75
5238;BME280;2639;49.700;7.962;2023-12-04T00:31:35;98882.13;;;-3.48;97.49
5238;BME280;2639;49.700;7.962;2023-12-04T00:32:38;98881.38;;;-3.54;97.90
5238;BME280;2639;49.700;7.962;2023-12-04T07:44:17;98471.84;;;-2.13;88.09
5238;BME280;2639;49.700;7.962;2023-12-04T07:45:21;98473.63;;;-2.12;87.86
5238;BME280;2639;49.700;7.962;2023-12-04T07:46:23;98471.47;;;-2.09;88.43
5238;BME280;2639;49.700;7.962;2023-12-04T07:47:27;98464.31;;;-2.06;88.84
5238;BME280;2639;49.700;7.962;2023-12-04T07:48:29;98467.53;;;-2.07;88.51
5238;BME280;2639;49.700;7.962;2023-12-04T07:49:32;98468.41;;;-2.14;88.63
5238;BME280;2639;49.700;7.962;2023-12-04T07:50:34;98466.09;;;-2.12;88.98
5238;BME280;2639;49.700;7.962;2023-12-04T07:51:36;98471.13;;;-2.05;88.90
5238;BME280;2639;49.700;7.962;2023-12-04T07:52:40;98471.50;;;-2.02;88.97
5238;BME280;2639;49.700;7.962;2023-12-04T07:53:42;98468.59;;;-1.98;89.36
5238;BME280;2639;49.700;7.962;2023-12-04T07:54:45;98470.78;;;-1.94;88.84
5238;BME280;2639;49.700;7.962;2023-12-04T07:55:47;98462.13;;;-1.88;88.87
5238;BME280;2639;49.700;7.962;2023-12-04T07:56:51;98461.78;;;-1.84;88.63
5238;BME280;2639;49.700;7.962;2023-12-04T07:57:54;98459.63;;;-1.88;87.61
5238;BME280;2639;49.700;7.962;2023-12-04T07:58:58;98463.22;;;-1.86;87.70
5238;BME280;2639;49.700;7.962;2023-12-04T08:00:02;98462.88;;;-1.89;87.21
5238;BME280;2639;49.700;7.962;2023-12-04T08:01:05;98458.94;;;-1.87;87.67
5238;BME280;2639;49.700;7.962;2023-12-04T08:02:09;98453.16;;;-1.86;87.80
5238;BME280;2639;49.700;7.962;2023-12-04T08:03:11;98448.47;;;-1.83;87.69
5238;BME280;2639;49.700;7.962;2023-12-04T08:04:14;98445.25;;;-1.82;87.60
5238;BME280;2639;49.700;7.962;2023-12-04T08:05:16;98447.97;;;-1.88;87.15
5238;BME280;2639;49.700;7.962;2023-12-04T08:06:24;98449.56;;;-1.88;87.05
5238;BME280;2639;49.700;7.962;2023-12-04T08:07:30;98454.59;;;-1.88;87.30
5238;BME280;2639;49.700;7.962;2023-12-04T08:08:32;98444.91;;;-1.93;86.97
5238;BME280;2639;49.700;7.962;2023-12-04T08:09:34;98446.69;;;-1.92;87.06
5238;BME280;2639;49.700;7.962;2023-12-04T08:10:37;98449.75;;;-1.87;87.10
5238;BME280;2639;49.700;7.962;2023-12-04T08:11:39;98447.78;;;-1.82;87.42
5238;BME280;2639;49.700;7.962;2023-12-04T08:12:44;98446.00;;;-1.76;87.81
5238;BME280;2639;49.700;7.962;2023-12-04T08:13:47;98445.78;;;-1.71;87.29
5238;BME280;2639;49.700;7.962;2023-12-04T08:14:49;98448.84;;;-1.66;86.88
5238;BME280;2639;49.700;7.962;2023-12-04T08:15:54;98444.53;;;-1.60;87.15
5238;BME280;2639;49.700;7.962;2023-12-04T08:16:56;98444.31;;;-1.54;86.63
5238;BME280;2639;49.700;7.962;2023-12-04T08:17:59;98434.78;;;-1.50;86.41
5238;BME280;2639;49.700;7.962;2023-12-04T08:19:02;98427.25;;;-1.50;85.95
5238;BME280;2639;49.700;7.962;2023-12-04T08:20:06;98433.34;;;-1.48;85.81
5238;BME280;2639;49.700;7.962;2023-12-04T08:21:09;98424.34;;;-1.45;85.33
5238;BME280;2639;49.700;7.962;2023-12-04T08:22:13;98429.19;;;-1.40;85.55
5238;BME280;2639;49.700;7.962;2023-12-04T08:23:15;98429.00;;;-1.34;85.09
5238;BME280;2639;49.700;7.962;2023-12-04T08:24:18;98426.47;;;-1.27;85.43
5238;BME280;2639;49.700;7.962;2023-12-04T08:25:20;98423.59;;;-1.23;85.31
5238;BME280;2639;49.700;7.962;2023-12-04T08:26:23;98427.53;;;-1.18;84.27
5238;BME280;2639;49.700;7.962;2023-12-04T08:27:26;98420.13;;;-1.16;84.09
5238;BME280;2639;49.700;7.962;2023-12-04T08:28:29;98420.66;;;-1.19;83.56
5238;BME280;2639;49.700;7.962;2023-12-04T08:29:31;98416.00;;;-1.16;83.95
5238;BME280;2639;49.700;7.962;2023-12-04T08:30:34;98404.47;;;-1.14;83.73
5238;BME280;2639;49.700;7.962;2023-12-04T08:31:37;98419.59;;;-1.14;83.81
5238;BME280;2639;49.700;7.962;2023-12-04T08:32:39;98418.13;;;-1.12;83.64
5238;BME280;2639;49.700;7.962;2023-12-04T08:33:43;98409.84;;;-1.11;83.46
5238;BME280;2639;49.700;7.962;2023-12-04T08:34:45;98409.53;;;-1.14;83.60
5238;BME280;2639;49.700;7.962;2023-12-04T08:35:48;98407.50;;;-1.09;83.32
5238;BME280;2639;49.700;7.962;2023-12-04T08:36:50;98404.59;;;-1.05;83.62
5238;BME280;2639;49.700;7.962;2023-12-04T08:37:53;98414.13;;;-1.02;83.54
5238;BME280;2639;49.700;7.962;2023-12-04T08:38:56;98411.28;;;-1.06;82.85
5238;BME280;2639;49.700;7.962;2023-12-04T08:39:59;98408.75;;;-1.06;82.66
5238;BME280;2639;49.700;7.962;2023-12-04T08:41:01;98407.31;;;-1.03;83.16
5238;BME280;2639;49.700;7.962;2023-12-04T08:42:04;98399.00;;;-1.02;83.39
5238;BME280;2639;49.700;7.962;2023-12-04T08:43:12;98404.97;;;-1.02;83.38
5238;BME280;2639;49.700;7.962;2023-12-04T08:44:16;98400.28;;;-0.99;83.89
5238;BME280;2639;49.700;7.962;2023-12-04T08:45:18;98402.59;;;-1.00;83.49
5238;BME280;2639;49.700;7.962;2023-12-04T08:46:21;98398.44;;;-1.00;83.75
5238;BME280;2639;49.700;7.962;2023-12-04T08:47:24;98404.75;;;-0.96;84.30
5238;BME280;2639;49.700;7.962;2023-12-04T08:48:28;98404.19;;;-0.94;84.10
5238;BME280;2639;49.700;7.962;2023-12-04T08:49:30;98402.41;;;-0.95;83.55
5238;BME280;2639;49.700;7.962;2023-12-04T08:50:44;98392.34;;;-0.95;83.90
5238;BME280;2639;49.700;7.962;2023-12-04T08:51:46;98401.13;;;-0.91;83.47
5238;BME280;2639;49.700;7.962;2023-12-04T08:52:49;98395.94;;;-0.93;83.04
5238;BME280;2639;49.700;7.962;2023-12-04T08:53:51;98405.47;;;-0.90;83.06
5238;BME280;2639;49.700;7.962;2023-12-04T08:54:54;98408.13;;;-0.89;82.93
5238;BME280;2639;49.700;7.962;2023-12-04T08:55:56;98413.34;;;-0.87;82.93
5238;BME280;2639;49.700;7.962;2023-12-04T08:56:59;98409.94;;;-0.88;82.68
5238;BME280;2639;49.700;7.962;2023-12-04T08:58:03;98418.59;;;-0.93;82.96
5238;BME280;2639;49.700;7.962;2023-12-04T08:59:07;98410.88;;;-0.94;83.33
5238;BME280;2639;49.700;7.962;2023-12-04T09:00:09;98413.38;;;-0.94;83.08
5238;BME280;2639;49.700;7.962;2023-12-04T09:01:12;98412.31;;;-0.96;83.23
5238;BME280;2639;49.700;7.962;2023-12-04T09:02:14;98406.53;;;-0.95;83.51
5238;BME280;2639;49.700;7.962;2023-12-04T09:03:19;98410.13;;;-0.93;83.64
5238;BME280;2639;49.700;7.962;2023-12-04T09:04:32;98405.66;;;-0.96;83.43
5238;BME280;2639;49.700;7.962;2023-12-04T09:05:36;98409.25;;;-0.94;83.55
5238;BME280;2639;49.700;7.962;2023-12-04T09:06:39;98406.91;;;-0.92;83.40
5238;BME280;2639;49.700;7.962;2023-12-04T09:08:02;98405.09;;;-0.93;83.15
5238;BME280;2639;49.700;7.962;2023-12-04T09:09:07;98406.75;;;-1.01;82.76
5238;BME280;2639;49.700;7.962;2023-12-04T09:10:14;98408.19;;;-1.03;83.10
5238;BME280;2639;49.700;7.962;2023-12-04T09:11:40;98409.28;;;-1.01;83.04
5238;BME280;2639;49.700;7.962;2023-12-04T09:12:44;98398.50;;;-1.07;82.96
5238;BME280;2639;49.700;7.962;2023-12-04T09:13:47;98401.94;;;-1.07;83.23
5238;BME280;2639;49.700;7.962;2023-12-04T09:14:50;98402.63;;;-1.08;83.57
5238;BME280;2639;49.700;7.962;2023-12-04T09:15:52;98402.81;;;-1.06;83.25
5238;BME280;2639;49.700;7.962;2023-12-04T09:16:55;98404.97;;;-1.02;83.55
5238;BME280;2639;49.700;7.962;2023-12-04T09:17:57;98404.06;;;-1.02;82.82
5238;BME280;2639;49.700;7.962;2023-12-04T09:19:02;98404.06;;;-1.02;82.69
5238;BME280;2639;49.700;7.962;2023-12-04T09:20:05;98405.88;;;-1.01;82.82
5238;BME280;2639;49.700;7.962;2023-12-04T09:21:08;98407.66;;;-1.00;82.83
5238;BME280;2639;49.700;7.962;2023-12-04T09:22:10;98402.06;;;-0.98;83.12
5238;BME280;2639;49.700;7.962;2023-12-04T09:23:21;98405.09;;;-0.93;82.91
5238;BME280;2639;49.700;7.962;2023-12-04T09:24:24;98404.53;;;-0.91;82.77
5238;BME280;2639;49.700;7.962;2023-12-04T09:25:29;98400.41;;;-0.90;83.06
5238;BME280;2639;49.700;7.962;2023-12-04T09:26:31;98403.28;;;-0.87;82.59
5238;BME280;2639;49.700;7.962;2023-12-04T09:27:35;98398.41;;;-0.86;82.43
5238;BME280;2639;49.700;7.962;2023-12-04T09:28:37;98409.72;;;-0.82;82.58
5238;BME280;2639;49.700;7.962;2023-12-04T09:29:40;98400.00;;;-0.79;82.41
5238;BME280;2639;49.700;7.962;2023-12-04T09:30:42;98406.81;;;-0.78;82.50
5238;BME280;2639;49.700;7.962;2023-12-04T09:34:20;98408.59;;;-0.77;82.08
5238;BME280;2639;49.700;7.962;2023-12-04T09:35:24;98408.97;;;-0.74;82.70
5238;BME280;2639;49.700;7.962;2023-12-04T09:36:26;98405.00;;;-0.72;82.30
5238;BME280;2639;49.700;7.962;2023-12-04T09:37:29;98398.66;;;-0.68;82.13
5238;BME280;2639;49.700;7.962;2023-12-04T09:38:32;98396.31;;;-0.67;82.18
5238;BME280;2639;49.700;7.962;2023-12-04T09:39:35;98402.25;;;-0.66;82.41
5238;BME280;2639;49.700;7.962;2023-12-04T09:40:37;98403.16;;;-0.66;81.77
5238;BME280;2639;49.700;7.962;2023-12-04T09:41:42;98413.59;;;-0.62;82.22
5238;BME280;2639;49.700;7.962;2023-12-04T09:42:44;98410.34;;;-0.61;81.92
5238;BME280;2639;49.700;7.962;2023-12-04T09:43:47;98408.88;;;-0.59;82.23
5238;BME280;2639;49.700;7.962;2023-12-04T09:44:51;98403.16;;;-0.66;82.39
5238;BME280;2639;49.700;7.962;2023-12-04T09:45:54;98398.09;;;-0.66;82.34
5238;BME280;2639;49.700;7.962;2023-12-04T09:46:58;98403.50;;;-0.62;82.16
5238;BME280;2639;49.700;7.962;2023-12-04T09:48:01;98399.19;;;-0.64;81.92
5238;BME280;2639;49.700;7.962;2023-12-04T09:49:05;98402.59;;;-0.63;81.64
5238;BME280;2639;49.700;7.962;2023-12-04T09:50:11;98402.78;;;-0.61;82.13
5238;BME280;2639;49.700;7.962;2023-12-04T09:51:15;98403.31;;;-0.64;81.83
5238;BME280;2639;49.700;7.962;2023-12-04T09:52:18;98402.03;;;-0.60;81.37
5238;BME280;2639;49.700;7.962;2023-12-04T09:53:23;98389.03;;;-0.56;81.78
5238;BME280;2639;49.700;7.962;2023-12-04T09:54:27;98392.97;;;-0.51;82.17
5238;BME280;2639;49.700;7.962;2023-12-04T09:55:31;98391.50;;;-0.49;81.98
5238;BME280;2639;49.700;7.962;2023-12-04T09:56:33;98392.78;;;-0.46;81.66
5238;BME280;2639;49.700;7.962;2023-12-04T09:57:37;98390.44;;;-0.44;81.86
5238;BME280;2639;49.700;7.962;2023-12-04T09:58:40;98392.38;;;-0.41;81.64
5238;BME280;2639;49.700;7.962;2023-12-04T09:59:44;98387.16;;;-0.43;80.80
5238;BME280;2639;49.700;7.962;2023-12-04T10:00:46;98389.88;;;-0.41;81.27
5238;BME280;2639;49.700;7.962;2023-12-04T10:01:51;98386.59;;;-0.40;81.70
5238;BME280;2639;49.700;7.962;2023-12-04T10:02:54;98382.13;;;-0.43;81.74
5238;BME280;2639;49.700;7.962;2023-12-04T10:03:58;98385.03;;;-0.47;81.34
5238;BME280;2639;49.700;7.962;2023-12-04T10:05:00;98385.03;;;-0.47;81.22
5238;BME280;2639;49.700;7.962;2023-12-04T10:06:08;98379.28;;;-0.46;81.57
5238;BME280;2639;49.700;7.962;2023-12-04T10:07:11;98380.34;;;-0.44;81.55
5238;BME280;2639;49.700;7.962;2023-12-04T10:08:14;98375.28;;;-0.44;81.90
5238;BME280;2639;49.700;7.962;2023-12-04T10:09:18;98378.84;;;-0.42;82.25
5238;BME280;2639;49.700;7.962;2023-12-04T10:10:24;98377.25;;;-0.41;82.31
5238;BME280;2639;49.700;7.962;2023-12-04T10:11:26;98377.41;;;-0.40;82.69
5238;BME280;2639;49.700;7.962;2023-12-04T10:12:30;98374.19;;;-0.39;82.72
5238;BME280;2639;49.700;7.962;2023-12-04T10:13:32;98364.41;;;-0.36;83.26
5238;BME280;2639;49.700;7.962;2023-12-04T10:15:03;98369.13;;;-0.39;83.66
5238;BME280;2639;49.700;7.962;2023-12-04T10:16:06;98360.81;;;-0.38;84.27
5238;BME280;2639;49.700;7.962;2023-12-04T10:17:14;98359.38;;;-0.36;84.21
5238;BME280;2639;49.700;7.962;2023-12-04T10:18:24;98358.25;;;-0.31;84.82
5238;BME280;2639;49.700;7.962;2023-12-04T10:19:29;98355.00;;;-0.30;85.25
5238;BME280;2639;49.700;7.962;2023-12-04T10:20:32;98355.34;;;-0.27;85.27
5238;BME280;2639;49.700;7.962;2023-12-04T10:21:36;98348.84;;;-0.25;85.44
5238;BME280;2639;49.700;7.962;2023-12-04T10:22:39;98353.88;;;-0.25;85.93
5238;BME280;2639;49.700;7.962;2023-12-04T10:23:43;98352.44;;;-0.23;85.96
5238;BME280;2639;49.700;7.962;2023-12-04T10:24:46;98341.84;;;-0.27;86.04
5238;BME280;2639;49.700;7.962;2023-12-04T10:25:49;98341.66;;;-0.29;86.58
5238;BME280;2639;49.700;7.962;2023-12-04T10:26:53;98336.09;;;-0.33;87.18
5238;BME280;2639;49.700;7.962;2023-12-04T10:28:07;98343.09;;;-0.31;87.53
5238;BME280;2639;49.700;7.962;2023-12-04T10:29:10;98335.53;;;-0.31;87.97
5238;BME280;2639;49.700;7.962;2023-12-04T10:30:23;98331.81;;;-0.34;88.27
5238;BME280;2639;49.700;7.962;2023-12-04T10:31:25;98335.03;;;-0.35;88.47
5238;BME280;2639;49.700;7.962;2023-12-04T10:32:28;98330.56;;;-0.38;88.95
5238;BME280;2639;49.700;7.962;2023-12-04T10:33:31;98327.31;;;-0.37;89.64
5238;BME280;2639;49.700;7.962;2023-12-04T10:34:34;98325.50;;;-0.38;89.54
5238;BME280;2639;49.700;7.962;2023-12-04T10:35:37;98323.22;;;-0.44;90.61
5238;BME280;2639;49.700;7.962;2023-12-04T10:36:41;98315.09;;;-0.41;90.48
5238;BME280;2639;49.700;7.962;2023-12-04T10:37:44;98319.47;;;-0.47;90.46
5238;BME280;2639;49.700;7.962;2023-12-04T10:38:58;98310.84;;;-0.49;90.13
5238;BME280;2639;49.700;7.962;2023-12-04T10:40:01;98307.97;;;-0.52;90.58
5238;BME280;2639;49.700;7.962;2023-12-04T10:41:12;98306.34;;;-0.52;91.59
5238;BME280;2639;49.700;7.962;2023-12-04T10:42:23;98301.88;;;-0.54;91.87
5238;BME280;2639;49.700;7.962;2023-12-04T10:43:27;98302.06;;;-0.53;91.75
5238;BME280;2639;49.700;7.962;2023-12-04T10:44:30;98300.81;;;-0.56;92.45
5238;BME280;2639;49.700;7.962;2023-12-04T10:45:34;98300.97;;;-0.55;92.48
5238;BME280;2639;49.700;7.962;2023-12-04T10:46:38;98294.63;;;-0.51;92.34
5238;BME280;2639;49.700;7.962;2023-12-04T10:47:45;98303.69;;;-0.53;92.93
5238;BME280;2639;49.700;7.962;2023-12-04T10:48:48;98299.75;;;-0.58;93.52
5238;BME280;2639;49.700;7.962;2023-12-04T10:49:52;98292.91;;;-0.59;93.94
5238;BME280;2639;49.700;7.962;2023-12-04T10:50:54;98290.09;;;-0.70;94.02
5238;BME280;2639;49.700;7.962;2023-12-04T10:52:01;98284.16;;;-0.70;95.00
5238;BME280;2639;49.700;7.962;2023-12-04T10:53:04;98290.09;;;-0.70;95.77
5238;BME280;2639;49.700;7.962;2023-12-04T10:54:06;98299.47;;;-0.69;95.98
5238;BME280;2639;49.700;7.962;2023-12-04T10:55:11;98291.53;;;-0.65;96.20
5238;BME280;2639;49.700;7.962;2023-12-04T10:56:18;98294.69;;;-0.58;95.79
5238;BME280;2639;49.700;7.962;2023-12-04T10:57:26;98289.66;;;-0.58;95.83
5238;BME280;2639;49.700;7.962;2023-12-04T10:58:30;98284.59;;;-0.58;95.74
5238;BME280;2639;49.700;7.962;2023-12-04T10:59:36;98280.63;;;-0.56;94.82
5238;BME280;2639;49.700;7.962;2023-12-04T11:00:43;98280.50;;;-0.58;94.83
5238;BME280;2639;49.700;7.962;2023-12-04T11:01:48;98284.28;;;-0.61;94.91
5238;BME280;2639;49.700;7.962;2023-12-04T11:02:55;98280.38;;;-0.67;95.04
5238;BME280;2639;49.700;7.962;2023-12-04T11:03:59;98272.88;;;-0.74;95.86
5238;BME280;2639;49.700;7.962;2023-12-04T11:05:07;98273.53;;;-0.68;96.12
5238;BME280;2639;49.700;7.962;2023-12-04T11:06:17;98265.56;;;-0.64;96.00
5238;BME280;2639;49.700;7.962;2023-12-04T11:07:23;98263.56;;;-0.59;96.04
5238;BME280;2639;49.700;7.962;2023-12-04T11:08:29;98261.28;;;-0.65;95.75
5238;BME280;2639;49.700;7.962;2023-12-04T11:09:35;98261.66;;;-0.69;95.14
5238;BME280;2639;49.700;7.962;2023-12-04T11:10:42;98255.22;;;-0.74;95.78
5238;BME280;2639;49.700;7.962;2023-12-04T11:11:51;98252.69;;;-0.74;95.33
5238;BME280;2639;49.700;7.962;2023-12-04T11:13:00;98249.44;;;-0.73;96.14
5238;BME280;2639;49.700;7.962;2023-12-04T11:14:05;98250.84;;;-0.68;96.03
5238;BME280;2639;49.700;7.962;2023-12-04T11:15:14;98243.94;;;-0.61;96.12
5238;BME280;2639;49.700;7.962;2023-12-04T11:16:22;98242.09;;;-0.55;95.88
5238;BME280;2639;49.700;7.962;2023-12-04T11:17:32;98243.19;;;-0.53;95.73
5238;BME280;2639;49.700;7.962;2023-12-04T11:18:37;98234.47;;;-0.48;95.73
5238;BME280;2639;49.700;7.962;2023-12-04T11:19:49;98237.63;;;-0.42;95.03
5238;BME280;2639;49.700;7.962;2023-12-04T11:20:58;98234.22;;;-0.43;94.35
5238;BME280;2639;49.700;7.962;2023-12-04T11:22:02;98226.53;;;-0.44;94.45
5238;BME280;2639;49.700;7.962;2023-12-04T11:23:08;98217.88;;;-0.46;94.34
5238;BME280;2639;49.700;7.962;2023-12-04T11:24:11;98227.31;;;-0.52;93.50
5238;BME280;2639;49.700;7.962;2023-12-04T11:25:15;98215.84;;;-0.57;93.48
5238;BME280;2639;49.700;7.962;2023-12-04T11:26:18;98216.59;;;-0.66;93.99
5238;BME280;2639;49.700;7.962;2023-12-04T11:27:22;98218.41;;;-0.65;94.43
5238;BME280;2639;49.700;7.962;2023-12-04T11:28:25;98216.59;;;-0.66;94.35
5238;BME280;2639;49.700;7.962;2023-12-04T11:29:30;98211.63;;;-0.73;95.21
5238;BME280;2639;49.700;7.962;2023-12-04T11:30:34;98217.41;;;-0.74;95.49
5238;BME280;2639;49.700;7.962;2023-12-04T11:31:39;98210.34;;;-0.69;96.03
5238;BME280;2639;49.700;7.962;2023-12-04T11:32:45;98208.66;;;-0.61;95.49
5238;BME280;2639;49.700;7.962;2023-12-04T11:33:49;98208.97;;;-0.58;95.41
5238;BME280;2639;49.700;7.962;2023-12-04T11:34:54;98201.91;;;-0.54;95.36
5238;BME280;2639;49.700;7.962;2023-12-04T11:36:06;98203.72;;;-0.53;94.23
5238;BME280;2639;49.700;7.962;2023-12-04T11:37:11;98194.41;;;-0.61;94.83
5238;BME280;2639;49.700;7.962;2023-12-04T11:38:17;98199.16;;;-0.64;94.12
5238;BME280;2639;49.700;7.962;2023-12-04T11:39:19;98197.50;;;-0.64;94.82
5238;BME280;2639;49.700;7.962;2023-12-04T11:40:23;98190.13;;;-0.62;94.83
5238;BME280;2639;49.700;7.962;2023-12-04T11:41:25;98191.34;;;-0.58;95.09
5238;BME280;2639;49.700;7.962;2023-12-04T11:42:30;98187.22;;;-0.58;94.66
5238;BME280;2639;49.700;7.962;2023-12-04T11:43:32;98195.31;;;-0.60;95.03
5238;BME280;2639;49.700;7.962;2023-12-04T11:44:34;98187.69;;;-0.69;95.16
5238;BME280;2639;49.700;7.962;2023-12-04T11:45:39;98184.22;;;-0.70;95.62
5238;BME280;2639;49.700;7.962;2023-12-04T11:46:55;98181.31;;;-0.66;95.61
5238;BME280;2639;49.700;7.962;2023-12-04T11:47:59;98190.00;;;-0.71;95.45
5238;BME280;2639;49.700;7.962;2023-12-04T11:49:26;98191.09;;;-0.69;96.01
5238;BME280;2639;49.700;7.962;2023-12-04T11:50:33;98182.13;;;-0.74;96.07
5238;BME280;2639;49.700;7.962;2023-12-04T11:51:45;98178.88;;;-0.73;95.89
5238;BME280;2639;49.700;7.962;2023-12-04T11:52:54;98175.63;;;-0.72;95.75
5238;BME280;2639;49.700;7.962;2023-12-04T11:53:58;98179.19;;;-0.70;95.86
5238;BME280;2639;49.700;7.962;2023-12-04T11:55:04;98174.81;;;-0.64;95.87
5238;BME280;2639;49.700;7.962;2023-12-04T11:56:10;98173.38;;;-0.61;95.72
5238;BME280;2639;49.700;7.962;2023-12-04T11:57:21;98168.56;;;-0.67;95.77
5238;BME280;2639;49.700;7.962;2023-12-04T11:58:24;98161.41;;;-0.71;95.63
5238;BME280;2639;49.700;7.962;2023-12-04T11:59:28;98162.47;;;-0.69;96.30
5238;BME280;2639;49.700;7.962;2023-12-04T12:00:34;98156.47;;;-0.62;95.72
5238;BME280;2639;49.700;7.962;2023-12-04T12:01:38;98153.88;;;-0.55;95.85
5238;BME280;2639;49.700;7.962;2023-12-04T12:02:47;98142.06;;;-0.48;95.69
5238;BME280;2639;49.700;7.962;2023-12-04T12:04:10;98150.03;;;-0.52;95.24
5238;BME280;2639;49.700;7.962;2023-12-04T12:05:14;98145.56;;;-0.54;94.91
5238;BME280;2639;49.700;7.962;2023-12-04T12:06:17;98145.25;;;-0.57;94.68
5238;BME280;2639;49.700;7.962;2023-12-04T12:07:20;98137.28;;;-0.53;94.70
5238;BME280;2639;49.700;7.962;2023-12-04T12:08:24;98135.78;;;-0.51;94.85
5238;BME280;2639;49.700;7.962;2023-12-04T12:09:30;98130.81;;;-0.58;94.01
5238;BME280;2639;49.700;7.962;2023-12-04T12:10:33;98125.06;;;-0.57;94.67
5238;BME280;2639;49.700;7.962;2023-12-04T12:11:39;98128.31;;;-0.58;94.86
5238;BME280;2639;49.700;7.962;2023-12-04T12:12:41;98128.66;;;-0.55;95.08
5238;BME280;2639;49.700;7.962;2023-12-04T12:13:46;98127.50;;;-0.50;94.75
5238;BME280;2639;49.700;7.962;2023-12-04T12:14:48;98128.56;;;-0.48;95.19
5238;BME280;2639;49.700;7.962;2023-12-04T12:15:51;98121.00;;;-0.48;95.17
5238;BME280;2639;49.700;7.962;2023-12-04T12:16:55;98120.28;;;-0.47;95.19
5238;BME280;2639;49.700;7.962;2023-12-04T12:17:58;98125.50;;;-0.46;94.96
5238;BME280;2639;49.700;7.962;2023-12-04T12:19:01;98128.31;;;-0.43;95.20
5238;BME280;2639;49.700;7.962;2023-12-04T12:20:06;98127.03;;;-0.39;95.23
5238;BME280;2639;49.700;7.962;2023-12-04T12:21:09;98122.00;;;-0.39;95.30
5238;BME280;2639;49.700;7.962;2023-12-04T12:22:12;98112.22;;;-0.36;95.01
5238;BME280;2639;49.700;7.962;2023-12-04T12:23:15;98117.91;;;-0.30;95.29
5238;BME280;2639;49.700;7.962;2023-12-04T12:24:18;98113.28;;;-0.34;94.64
5238;BME280;2639;49.700;7.962;2023-12-04T12:25:23;98106.03;;;-0.31;95.08
5238;BME280;2639;49.700;7.962;2023-12-04T12:26:28;98116.13;;;-0.31;94.82
5238;BME280;2639;49.700;7.962;2023-12-04T12:27:31;98113.75;;;-0.29;94.44
5238;BME280;2639;49.700;7.962;2023-12-04T12:28:35;98107.00;;;-0.22;94.84
5238;BME280;2639;49.700;7.962;2023-12-04T12:29:39;98107.66;;;-0.15;94.56
5238;BME280;2639;49.700;7.962;2023-12-04T12:30:41;98102.03;;;-0.13;94.43
5238;BME280;2639;49.700;7.962;2023-12-04T12:31:47;98096.72;;;-0.07;94.55
5238;BME280;2639;49.700;7.962;2023-12-04T12:32:50;98099.19;;;0.00;93.83
5238;BME280;2639;49.700;7.962;2023-12-04T12:33:56;98096.47;;;-0.02;93.88
5238;BME280;2639;49.700;7.962;2023-12-04T12:34:59;98099.59;;;-0.04;93.20
5238;BME280;2639;49.700;7.962;2023-12-04T12:36:03;98100.00;;;-0.08;93.58
5238;BME280;2639;49.700;7.962;2023-12-04T12:37:06;98098.53;;;-0.06;93.51
5238;BME280;2639;49.700;7.962;2023-12-04T12:38:09;98093.16;;;-0.09;93.84
5238;BME280;2639;49.700;7.962;2023-12-04T12:39:12;98092.00;;;-0.04;93.67
5238;BME280;2639;49.700;7.962;2023-12-04T12:40:17;98084.59;;;-0.03;93.44
5238;BME280;2639;49.700;7.962;2023-12-04T12:41:21;98082.53;;;0.02;93.71
5238;BME280;2639;49.700;7.962;2023-12-04T12:42:24;98079.91;;;0.09;93.46
5238;BME280;2639;49.700;7.962;2023-12-04T12:43:27;98073.41;;;0.11;92.74
5238;BME280;2639;49.700;7.962;2023-12-04T12:44:37;98074.88;;;0.09;93.08
5238;BME280;2639;49.700;7.962;2023-12-04T12:45:41;98065.72;;;0.18;93.28
5238;BME280;2639;49.700;7.962;2023-12-04T12:46:47;98066.66;;;0.28;92.39
5238;BME280;2639;49.700;7.962;2023-12-04T12:47:50;98064.47;;;0.31;91.72
5238;BME280;2639;49.700;7.962;2023-12-04T12:48:54;98060.03;;;0.37;91.58
5238;BME280;2639;49.700;7.962;2023-12-04T12:49:57;98067.66;;;0.46;91.87
5238;BME280;2639;49.700;7.962;2023-12-04T12:51:02;98065.59;;;0.50;91.42
5238;BME280;2639;49.700;7.962;2023-12-04T12:52:05;98064.56;;;0.48;90.98
5238;BME280;2639;49.700;7.962;2023-12-04T12:53:11;98067.09;;;0.48;90.38
5238;BME280;2639;49.700;7.962;2023-12-04T12:54:14;98057.63;;;0.54;91.07
5238;BME280;2639;49.700;7.962;2023-12-04T12:55:23;98050.75;;;0.53;90.44
5238;BME280;2639;49.700;7.962;2023-12-04T12:56:27;98054.66;;;0.58;90.00
5238;BME280;2639;49.700;7.962;2023-12-04T12:57:31;98048.22;;;0.53;90.34
5238;BME280;2639;49.700;7.962;2023-12-04T12:58:34;98048.22;;;0.53;90.05
5238;BME280;2639;49.700;7.962;2023-12-04T12:59:39;98044.22;;;0.55;90.07
5238;BME280;2639;49.700;7.962;2023-12-04T13:00:43;98047.69;;;0.56;89.57
5238;BME280;2639;49.700;7.962;2023-12-04T13:01:47;98042.00;;;0.50;90.31
5238;BME280;2639;49.700;7.962;2023-12-04T13:02:52;98042.88;;;0.50;90.36
5238;BME280;2639;49.700;7.962;2023-12-04T13:03:56;98043.28;;;0.46;90.77
5238;BME280;2639;49.700;7.962;2023-12-04T13:04:59;98036.19;;;0.42;90.61